Time;durP1;ratioP1;P1;durP2;ratioP2;P2;SDS_P1;SDS_P2;PMS_P1;PMS_P2;Temp;Humidity;BMP_temperature;BMP_pressure;BME280_temperature;BME280_humidity;BME280_pressure;Samples;Min_cycle;Max_cycle;Signal;HPM_P1;HPM_P2
2021/03/25 00:00:30;;;;;;;43.50;23.30;;;4.20;99.90;;;;;;5045282;28;20397;-76
2021/03/25 00:02:59;;;;;;;40.90;23.87;;;4.10;99.90;;;;;;5055875;28;20398;-76
2021/03/25 00:05:28;;;;;;;47.00;25.80;;;4.00;99.90;;;;;;5060681;28;20386;-76
2021/03/25 00:07:54;;;;;;;38.30;21.70;;;4.00;99.90;;;;;;5057471;28;20434;-76
2021/03/25 00:10:38;;;;;;;45.47;22.70;;;4.10;99.90;;;;;;5041317;28;20413;-76
2021/03/25 00:13:05;;;;;;;46.63;23.17;;;4.20;99.90;;;;;;5058215;28;20715;-75
2021/03/25 00:15:32;;;;;;;42.40;22.50;;;4.30;99.90;;;;;;5049293;28;20418;-76
2021/03/25 00:17:58;;;;;;;37.67;21.60;;;4.20;99.90;;;;;;5060966;28;20465;-75
2021/03/25 00:20:24;;;;;;;40.23;22.90;;;4.00;99.90;;;;;;5058034;28;20407;-76
2021/03/25 00:22:50;;;;;;;47.60;24.60;;;3.90;99.90;;;;;;5057747;28;20416;-76
2021/03/25 00:25:25;;;;;;;39.07;23.80;;;3.90;99.90;;;;;;5058931;28;20445;-75
2021/03/25 00:27:51;;;;;;;37.87;23.13;;;3.80;99.90;;;;;;5059765;28;20471;-75
2021/03/25 00:30:21;;;;;;;44.03;23.90;;;3.70;99.90;;;;;;5058549;28;20466;-76
2021/03/25 00:32:46;;;;;;;39.50;24.00;;;3.80;99.90;;;;;;5061773;28;20358;-76
2021/03/25 00:35:13;;;;;;;48.77;25.33;;;3.70;99.90;;;;;;5064519;28;20406;-76
2021/03/25 00:37:40;;;;;;;46.90;24.27;;;3.70;99.90;;;;;;5067826;28;20752;-76
2021/03/25 00:40:07;;;;;;;41.73;25.47;;;3.80;99.90;;;;;;5077105;28;20407;-76
2021/03/25 00:42:33;;;;;;;39.30;24.47;;;4.00;99.90;;;;;;5078109;28;20407;-75
2021/03/25 00:44:59;;;;;;;42.63;24.90;;;4.00;99.90;;;;;;5081092;28;20441;-76
2021/03/25 00:47:25;;;;;;;44.03;24.77;;;3.80;99.90;;;;;;5059777;28;20502;-75
2021/03/25 00:49:51;;;;;;;40.80;24.33;;;3.80;99.90;;;;;;5062531;28;20426;-75
2021/03/25 00:52:17;;;;;;;49.70;26.23;;;3.90;99.90;;;;;;5046702;28;20202;-75
2021/03/25 00:54:42;;;;;;;44.23;23.43;;;3.80;99.90;;;;;;5061502;28;20700;-75
2021/03/25 00:57:08;;;;;;;39.80;23.50;;;3.70;99.90;;;;;;5062039;28;20951;-75
2021/03/25 00:59:34;;;;;;;48.93;26.40;;;3.70;99.90;;;;;;5078763;28;20252;-75
2021/03/25 01:02:00;;;;;;;43.30;26.33;;;3.70;99.90;;;;;;5061009;28;20209;-75
2021/03/25 01:04:26;;;;;;;41.40;24.60;;;3.80;99.90;;;;;;5052812;28;20720;-75
2021/03/25 01:06:52;;;;;;;60.93;25.03;;;3.90;99.90;;;;;;5077875;28;20410;-75
2021/03/25 01:09:24;;;;;;;48.73;23.83;;;3.80;99.90;;;;;;5080193;28;20221;-75
2021/03/25 01:11:51;;;;;;;45.23;25.53;;;3.80;99.90;;;;;;5062366;28;20491;-76
2021/03/25 01:14:20;;;;;;;43.37;25.77;;;3.70;99.90;;;;;;5063893;28;20427;-75
2021/03/25 01:16:46;;;;;;;43.33;24.77;;;3.60;99.90;;;;;;5067586;28;20398;-75
2021/03/25 01:19:28;;;;;;;44.30;24.10;;;3.60;99.90;;;;;;5059985;28;20423;-75
2021/03/25 01:21:55;;;;;;;48.43;25.10;;;3.60;99.90;;;;;;5045722;28;20385;-75
2021/03/25 01:24:21;;;;;;;56.57;26.27;;;3.60;99.90;;;;;;5064430;28;20414;-75
2021/03/25 01:26:47;;;;;;;43.17;25.97;;;3.60;99.90;;;;;;5062039;28;20779;-76
2021/03/25 01:29:13;;;;;;;57.50;27.43;;;3.60;99.90;;;;;;5046145;28;20428;-76
2021/03/25 01:31:39;;;;;;;44.63;23.77;;;3.60;99.90;;;;;;5062565;28;20205;-76
2021/03/25 01:34:06;;;;;;;51.80;25.37;;;3.60;99.90;;;;;;5063068;28;20448;-76
2021/03/25 01:36:32;;;;;;;42.53;25.03;;;3.70;99.90;;;;;;5062906;28;20225;-75
2021/03/25 01:38:57;;;;;;;38.90;25.07;;;3.60;99.90;;;;;;5062130;28;20469;-76
2021/03/25 01:41:31;;;;;;;56.60;28.37;;;3.70;99.90;;;;;;5063781;28;20210;-76
2021/03/25 01:43:57;;;;;;;44.87;25.13;;;3.70;99.90;;;;;;5064661;28;20727;-75
2021/03/25 01:46:39;;;;;;;39.87;24.73;;;3.80;99.90;;;;;;5063867;28;20427;-76
2021/03/25 01:49:11;;;;;;;43.80;23.83;;;3.90;99.90;;;;;;5043936;28;20262;-76
2021/03/25 01:51:46;;;;;;;45.70;28.00;;;4.00;99.90;;;;;;5061881;28;20474;-75
2021/03/25 01:54:11;;;;;;;46.73;25.43;;;4.10;99.90;;;;;;5063380;28;20480;-75
2021/03/25 01:56:46;;;;;;;54.17;26.73;;;4.20;99.90;;;;;;5062103;28;20439;-75
2021/03/25 01:59:39;;;;;;;47.30;26.60;;;4.20;99.90;;;;;;5060235;28;20212;-75
2021/03/25 02:02:33;;;;;;;40.87;24.07;;;4.10;99.90;;;;;;5060470;28;20448;-75
2021/03/25 02:05:06;;;;;;;43.80;27.60;;;4.10;99.90;;;;;;5044414;28;20382;-75
2021/03/25 02:07:42;;;;;;;47.43;26.37;;;4.10;99.90;;;;;;5068894;28;20407;-75
2021/03/25 02:10:40;;;;;;;41.50;29.20;;;4.20;99.90;;;;;;5062659;28;20881;-75
2021/03/25 02:13:16;;;;;;;44.50;27.57;;;4.20;99.90;;;;;;5061896;28;20378;-75
2021/03/25 02:16:12;;;;;;;54.90;29.47;;;4.30;99.90;;;;;;5093868;22;20420;-76
2021/03/25 02:18:58;;;;;;;50.83;30.23;;;4.40;99.90;;;;;;5067526;28;21005;-77
2021/03/25 02:21:37;;;;;;;53.23;31.10;;;4.60;99.90;;;;;;5071673;28;20761;-77
2021/03/25 02:24:15;;;;;;;47.37;29.07;;;4.70;99.90;;;;;;5106863;27;21253;-78
2021/03/25 02:26:44;;;;;;;50.77;29.23;;;4.80;99.90;;;;;;5114720;27;20419;-78
2021/03/25 02:29:14;;;;;;;50.97;28.03;;;4.80;99.90;;;;;;5102173;27;20536;-78
2021/03/25 02:31:43;;;;;;;51.83;27.67;;;4.90;99.90;;;;;;5091686;28;20413;-78
2021/03/25 02:34:19;;;;;;;48.13;29.47;;;4.90;99.90;;;;;;5077816;28;20392;-78
2021/03/25 02:36:58;;;;;;;43.13;27.33;;;4.90;99.90;;;;;;5096470;28;20475;-77
2021/03/25 02:39:33;;;;;;;57.10;30.37;;;5.00;99.90;;;;;;5088051;27;20391;-77
2021/03/25 02:42:03;;;;;;;47.23;27.93;;;4.90;99.90;;;;;;5104510;27;20375;-78
2021/03/25 02:44:35;;;;;;;42.90;25.83;;;4.90;99.90;;;;;;5087970;28;20468;-78
2021/03/25 02:47:09;;;;;;;51.40;29.57;;;4.90;99.90;;;;;;5086872;28;20920;-77
2021/03/25 02:49:56;;;;;;;49.43;29.00;;;5.00;99.90;;;;;;5086871;28;20427;-77
2021/03/25 02:52:24;;;;;;;51.20;29.47;;;5.00;99.90;;;;;;5088590;28;20900;-77
2021/03/25 02:54:52;;;;;;;58.47;27.77;;;4.90;99.90;;;;;;5103860;27;20408;-77
2021/03/25 02:57:34;;;;;;;55.37;28.90;;;4.90;99.90;;;;;;5088666;28;20412;-77
2021/03/25 03:00:11;;;;;;;41.50;26.90;;;5.00;99.90;;;;;;5069709;28;20448;-77
2021/03/25 03:02:40;;;;;;;55.73;27.77;;;5.00;99.90;;;;;;5088248;28;20394;-78
2021/03/25 03:05:18;;;;;;;42.17;28.00;;;5.10;99.90;;;;;;5073823;28;20889;-77
2021/03/25 03:08:20;;;;;;;48.57;26.80;;;5.10;99.90;;;;;;5085833;28;20409;-77
2021/03/25 03:10:52;;;;;;;44.60;27.77;;;5.10;99.90;;;;;;5084569;28;20410;-78
2021/03/25 03:13:22;;;;;;;47.77;28.57;;;5.20;99.90;;;;;;5088173;27;20820;-77
2021/03/25 03:16:07;;;;;;;46.20;30.27;;;5.20;99.90;;;;;;5084673;27;20474;-77
2021/03/25 03:18:41;;;;;;;45.40;26.67;;;5.30;99.90;;;;;;5067635;28;20941;-77
2021/03/25 03:21:16;;;;;;;44.73;27.13;;;5.40;99.90;;;;;;5087027;28;20554;-77
2021/03/25 03:23:42;;;;;;;52.47;28.33;;;5.30;99.90;;;;;;5089286;28;20392;-78
2021/03/25 03:26:14;;;;;;;44.80;27.80;;;5.40;99.90;;;;;;5070605;28;20479;-78
2021/03/25 03:28:53;;;;;;;40.60;26.17;;;5.30;99.90;;;;;;5090424;28;20380;-79
2021/03/25 03:31:27;;;;;;;45.83;27.47;;;5.30;99.90;;;;;;5052169;28;20455;-77
2021/03/25 03:34:01;;;;;;;52.13;28.63;;;5.30;99.90;;;;;;5065409;28;20887;-77
2021/03/25 03:36:28;;;;;;;42.70;24.77;;;5.30;99.90;;;;;;5087837;28;20933;-78
2021/03/25 03:39:05;;;;;;;47.63;28.53;;;5.30;99.90;;;;;;5054485;28;20349;-78
2021/03/25 03:41:54;;;;;;;43.40;25.20;;;5.10;99.90;;;;;;5059462;28;20397;-78
2021/03/25 03:44:28;;;;;;;39.77;26.03;;;5.10;99.90;;;;;;5058360;28;20397;-77
2021/03/25 03:46:57;;;;;;;42.50;26.03;;;5.20;99.90;;;;;;5068001;28;20392;-78
2021/03/25 03:49:59;;;;;;;43.83;26.90;;;5.20;99.90;;;;;;5056275;28;20407;-77
2021/03/25 03:52:28;;;;;;;52.63;27.07;;;5.20;99.90;;;;;;5062275;28;20451;-78
2021/03/25 03:54:55;;;;;;;42.57;26.10;;;5.10;99.90;;;;;;5087454;28;20924;-77
2021/03/25 03:58:02;;;;;;;63.67;27.77;;;5.10;99.90;;;;;;5050473;28;20537;-77
2021/03/25 04:00:42;;;;;;;42.13;25.97;;;5.10;99.90;;;;;;5009244;28;20503;-77
2021/03/25 04:03:37;;;;;;;45.20;25.93;;;5.20;99.90;;;;;;5010110;28;20396;-77
2021/03/25 04:06:07;;;;;;;54.37;27.33;;;5.20;99.90;;;;;;4992031;28;20418;-77
2021/03/25 04:08:58;;;;;;;40.43;24.60;;;5.30;99.90;;;;;;5015596;28;20423;-78
2021/03/25 04:11:35;;;;;;;42.10;24.60;;;5.30;99.90;;;;;;5018420;28;20402;-78
2021/03/25 04:14:15;;;;;;;50.60;27.17;;;5.30;99.90;;;;;;4991362;28;20898;-77
2021/03/25 04:16:41;;;;;;;45.20;27.00;;;5.40;99.90;;;;;;5006347;28;20410;-77
2021/03/25 04:19:35;;;;;;;51.30;26.93;;;5.50;99.90;;;;;;5013832;28;20939;-77
2021/03/25 04:22:05;;;;;;;54.37;27.53;;;5.40;99.90;;;;;;5015973;28;20391;-77
2021/03/25 04:24:43;;;;;;;49.13;28.80;;;5.40;99.90;;;;;;4996936;28;20931;-77
2021/03/25 04:27:17;;;;;;;42.60;27.57;;;5.40;99.90;;;;;;5032398;28;20363;-77
2021/03/25 04:29:55;;;;;;;44.93;27.33;;;5.50;99.90;;;;;;5014743;28;20786;-77
2021/03/25 04:32:22;;;;;;;49.77;26.40;;;5.40;99.90;;;;;;5074936;28;20456;-77
2021/03/25 04:34:49;;;;;;;59.90;26.40;;;5.50;99.90;;;;;;5070943;28;20453;-77
2021/03/25 04:37:16;;;;;;;51.47;28.13;;;5.50;99.90;;;;;;5074369;28;20425;-77
2021/03/25 04:39:43;;;;;;;47.47;26.77;;;5.40;99.90;;;;;;5070083;28;20505;-77
2021/03/25 04:42:10;;;;;;;41.40;26.33;;;5.40;99.90;;;;;;5108844;28;20394;-77
2021/03/25 04:44:59;;;;;;;49.57;28.90;;;5.40;99.90;;;;;;5088405;27;20435;-77
2021/03/25 04:47:30;;;;;;;45.63;27.70;;;5.50;99.90;;;;;;5091489;28;20374;-77
2021/03/25 04:50:06;;;;;;;52.43;27.60;;;5.50;99.90;;;;;;5069956;27;20766;-77
2021/03/25 04:52:34;;;;;;;47.43;29.57;;;5.60;99.90;;;;;;5088452;28;20421;-77
2021/03/25 04:55:19;;;;;;;46.53;28.80;;;5.60;99.90;;;;;;5075428;27;20956;-77
2021/03/25 04:58:07;;;;;;;63.77;29.87;;;5.60;99.90;;;;;;5106851;27;20522;-78
2021/03/25 05:00:39;;;;;;;51.60;28.90;;;5.50;99.90;;;;;;5088205;27;20952;-78
2021/03/25 05:03:10;;;;;;;55.83;27.67;;;5.50;99.90;;;;;;5091826;27;20548;-78
2021/03/25 05:05:36;;;;;;;53.53;27.30;;;5.50;99.90;;;;;;5109698;27;20410;-78
2021/03/25 05:08:15;;;;;;;53.10;28.80;;;5.50;99.90;;;;;;5093116;28;21272;-78
2021/03/25 05:10:41;;;;;;;52.13;31.57;;;5.50;99.90;;;;;;5091000;28;20384;-78
2021/03/25 05:13:23;;;;;;;56.33;32.27;;;5.50;99.90;;;;;;5091187;28;21001;-78
2021/03/25 05:15:57;;;;;;;53.40;30.77;;;5.50;99.90;;;;;;5087942;28;20974;-78
2021/03/25 05:18:30;;;;;;;58.83;32.73;;;5.50;99.90;;;;;;5057552;28;20527;-78
2021/03/25 05:21:10;;;;;;;51.13;30.10;;;5.40;99.90;;;;;;5054628;28;20415;-78
2021/03/25 05:23:46;;;;;;;50.43;29.33;;;5.30;99.90;;;;;;5070546;28;20468;-78
2021/03/25 05:26:28;;;;;;;51.03;32.43;;;5.30;99.90;;;;;;5069763;28;20394;-77
2021/03/25 05:29:00;;;;;;;59.73;32.00;;;5.40;99.90;;;;;;5070762;28;20436;-77
2021/03/25 05:31:28;;;;;;;57.07;33.00;;;5.40;99.90;;;;;;5068237;28;20384;-78
2021/03/25 05:33:57;;;;;;;64.20;35.10;;;5.50;99.90;;;;;;5074019;28;20390;-77
2021/03/25 05:36:23;;;;;;;59.13;31.63;;;5.50;99.90;;;;;;5088257;28;20380;-78
2021/03/25 05:38:50;;;;;;;57.80;33.93;;;5.60;99.90;;;;;;5059821;28;20504;-78
2021/03/25 05:41:36;;;;;;;57.60;34.83;;;5.60;99.90;;;;;;5056851;28;20449;-78
2021/03/25 05:44:49;;;;;;;60.13;35.97;;;5.70;99.90;;;;;;5071713;28;20507;-79
2021/03/25 05:47:29;;;;;;;80.07;36.93;;;5.80;99.90;;;;;;5059269;28;20838;-78
2021/03/25 05:50:08;;;;;;;66.00;35.43;;;6.00;99.90;;;;;;5075891;28;20389;-78
2021/03/25 05:52:41;;;;;;;52.13;31.47;;;6.20;99.90;;;;;;5071033;28;21803;-78
2021/03/25 05:55:36;;;;;;;59.10;32.33;;;6.30;99.90;;;;;;5087854;28;20475;-78
2021/03/25 05:58:38;;;;;;;56.67;32.03;;;6.30;99.90;;;;;;5046281;28;20438;-78
2021/03/25 06:01:13;;;;;;;49.77;30.37;;;6.30;99.90;;;;;;5067935;28;20418;-78
2021/03/25 06:04:02;;;;;;;52.93;32.80;;;6.30;99.90;;;;;;5087761;28;20400;-78
2021/03/25 06:06:46;;;;;;;49.43;28.50;;;6.30;99.90;;;;;;5088246;28;20419;-78
2021/03/25 06:09:46;;;;;;;46.80;28.80;;;6.30;99.90;;;;;;5070931;28;20410;-78
2021/03/25 06:12:57;;;;;;;44.60;26.90;;;6.40;99.90;;;;;;5070718;28;20396;-77
2021/03/25 06:15:49;;;;;;;47.30;29.10;;;6.40;99.90;;;;;;5069132;28;20414;-79
2021/03/25 06:18:24;;;;;;;51.63;26.73;;;6.60;99.90;;;;;;5086957;28;20402;-78
2021/03/25 06:21:20;;;;;;;63.33;31.90;;;6.70;99.90;;;;;;5092063;28;21076;-80
2021/03/25 06:24:05;;;;;;;51.00;29.37;;;6.70;99.90;;;;;;5082570;28;20421;-79
2021/03/25 06:26:56;;;;;;;50.67;28.83;;;6.80;99.90;;;;;;5076009;28;20499;-80
2021/03/25 06:29:27;;;;;;;48.60;29.00;;;6.90;99.90;;;;;;5095980;28;20388;-79
2021/03/25 06:31:56;;;;;;;45.13;27.83;;;6.90;99.90;;;;;;5097930;28;20430;-80
2021/03/25 06:34:43;;;;;;;58.37;30.83;;;7.00;99.90;;;;;;5097251;28;21304;-79
2021/03/25 06:37:18;;;;;;;52.10;30.33;;;7.20;99.90;;;;;;5079891;28;21267;-80
2021/03/25 06:39:52;;;;;;;49.03;29.63;;;7.40;99.90;;;;;;5081580;28;20446;-79
2021/03/25 06:42:40;;;;;;;50.87;29.20;;;7.40;99.90;;;;;;5094665;28;20378;-79
2021/03/25 06:45:26;;;;;;;50.00;30.00;;;7.40;99.90;;;;;;5075956;28;20409;-79
2021/03/25 06:48:01;;;;;;;51.30;30.10;;;7.40;99.90;;;;;;5067359;28;20362;-80
2021/03/25 06:50:35;;;;;;;56.20;27.83;;;7.60;99.90;;;;;;5094074;28;21026;-79
2021/03/25 06:53:27;;;;;;;48.80;27.97;;;7.70;99.90;;;;;;5082498;28;20438;-79
2021/03/25 06:56:00;;;;;;;51.33;32.50;;;8.10;99.90;;;;;;5076654;28;20379;-79
2021/03/25 06:58:38;;;;;;;54.53;28.80;;;8.40;99.90;;;;;;5095802;28;20555;-78
2021/03/25 07:01:43;;;;;;;53.70;27.30;;;8.80;99.90;;;;;;5094918;28;20866;-79
2021/03/25 07:04:21;;;;;;;52.13;27.87;;;9.10;99.90;;;;;;5038093;28;20446;-80
2021/03/25 07:06:47;;;;;;;47.93;27.50;;;9.60;99.90;;;;;;5039931;28;20384;-80
2021/03/25 07:09:15;;;;;;;50.13;29.37;;;9.70;99.90;;;;;;5043772;28;20427;-79
2021/03/25 07:11:41;;;;;;;44.77;29.30;;;10.20;99.90;;;;;;5054717;28;20384;-79
2021/03/25 07:14:13;;;;;;;55.90;29.87;;;10.90;99.90;;;;;;5021373;28;20429;-78
2021/03/25 07:16:44;;;;;;;48.60;31.10;;;11.10;99.90;;;;;;5024759;28;20431;-79
2021/03/25 07:19:17;;;;;;;46.27;27.30;;;11.50;99.90;;;;;;5052266;28;20433;-79
2021/03/25 07:21:46;;;;;;;50.10;28.00;;;12.10;99.90;;;;;;5037984;28;20380;-79
2021/03/25 07:24:32;;;;;;;50.67;29.53;;;12.60;99.90;;;;;;5052983;28;21119;-78
2021/03/25 07:27:23;;;;;;;54.13;31.17;;;13.10;99.90;;;;;;5054437;28;20378;-79
2021/03/25 07:30:00;;;;;;;48.60;30.33;;;13.40;99.90;;;;;;5059572;28;20449;-79
2021/03/25 07:32:52;;;;;;;48.47;31.47;;;14.00;99.90;;;;;;5055542;28;20432;-79
2021/03/25 07:35:27;;;;;;;47.30;29.73;;;13.90;99.90;;;;;;5039814;28;20432;-79
2021/03/25 07:37:55;;;;;;;53.53;32.73;;;13.20;99.90;;;;;;5025551;28;20376;-79
2021/03/25 07:40:37;;;;;;;50.30;30.87;;;13.00;99.90;;;;;;5061450;28;20507;-78
2021/03/25 07:43:14;;;;;;;48.33;29.47;;;12.00;99.90;;;;;;5062393;28;20466;-79
2021/03/25 07:45:41;;;;;;;46.17;28.53;;;12.20;99.90;;;;;;5077025;28;20381;-79
2021/03/25 07:48:25;;;;;;;49.57;29.50;;;12.50;99.90;;;;;;5058732;28;20425;-78
2021/03/25 07:51:12;;;;;;;49.27;30.50;;;12.40;99.90;;;;;;5060929;28;20430;-78
2021/03/25 07:53:39;;;;;;;49.07;30.47;;;12.40;99.90;;;;;;5093493;28;20952;-79
2021/03/25 07:56:12;;;;;;;53.30;32.33;;;12.30;99.90;;;;;;5061123;28;20403;-79
2021/03/25 07:58:41;;;;;;;51.03;29.97;;;12.60;99.90;;;;;;5095753;28;20387;-79
2021/03/25 08:01:19;;;;;;;49.50;32.27;;;13.10;99.90;;;;;;5077751;28;20356;-78
2021/03/25 08:03:54;;;;;;;43.63;30.47;;;12.80;99.90;;;;;;5065566;28;20497;-78
2021/03/25 08:06:33;;;;;;;46.70;30.07;;;12.90;99.90;;;;;;5059049;28;20892;-78
2021/03/25 08:09:13;;;;;;;49.60;29.40;;;12.60;99.90;;;;;;5074742;28;20417;-78
2021/03/25 08:12:02;;;;;;;46.10;29.73;;;12.20;99.90;;;;;;5074854;28;20414;-78
2021/03/25 08:14:33;;;;;;;44.10;29.47;;;12.80;99.90;;;;;;5092698;28;20429;-79
2021/03/25 08:17:12;;;;;;;48.00;32.03;;;12.80;99.90;;;;;;5095761;28;20466;-79
2021/03/25 08:19:48;;;;;;;46.60;29.77;;;12.60;99.90;;;;;;5078345;28;20413;-79
2021/03/25 08:22:55;;;;;;;48.73;31.27;;;12.40;99.90;;;;;;5075014;28;20825;-79
2021/03/25 08:25:45;;;;;;;50.80;30.10;;;12.60;99.90;;;;;;5050635;28;20412;-79
2021/03/25 08:28:21;;;;;;;45.90;29.20;;;12.50;99.90;;;;;;5091231;28;21260;-78
2021/03/25 08:31:09;;;;;;;47.30;31.17;;;12.30;99.90;;;;;;5077164;28;20405;-78
2021/03/25 08:33:41;;;;;;;54.00;32.27;;;12.30;99.90;;;;;;5074499;28;20494;-78
2021/03/25 08:36:28;;;;;;;60.47;36.90;;;12.70;99.90;;;;;;5077059;28;20427;-78
2021/03/25 08:38:57;;;;;;;62.73;39.37;;;12.80;99.90;;;;;;5063899;28;20404;-78
2021/03/25 08:41:30;;;;;;;56.53;36.53;;;12.60;99.90;;;;;;5091097;28;20389;-78
2021/03/25 08:44:09;;;;;;;55.77;37.27;;;12.60;99.90;;;;;;5056458;28;20425;-78
2021/03/25 08:47:13;;;;;;;59.90;38.83;;;12.10;99.90;;;;;;5092891;28;20440;-78
2021/03/25 08:50:00;;;;;;;46.23;33.30;;;12.70;99.90;;;;;;4996767;28;20429;-78
2021/03/25 08:52:32;;;;;;;55.63;34.73;;;12.90;99.90;;;;;;5068426;28;20419;-79
2021/03/25 08:55:29;;;;;;;54.90;33.87;;;13.20;99.90;;;;;;5075757;28;20510;-80
2021/03/25 08:58:18;;;;;;;61.57;34.00;;;13.60;99.90;;;;;;5084108;28;20456;-79
2021/03/25 09:00:48;;;;;;;49.73;31.20;;;13.80;99.90;;;;;;5079516;28;20454;-79
2021/03/25 09:03:34;;;;;;;42.47;31.57;;;14.10;99.90;;;;;;5072979;28;20461;-78
2021/03/25 09:06:08;;;;;;;40.33;26.03;;;14.10;99.90;;;;;;5096197;28;20468;-78
2021/03/25 09:08:37;;;;;;;51.30;30.73;;;14.20;99.90;;;;;;5063391;28;20420;-78
2021/03/25 09:11:10;;;;;;;48.40;28.43;;;14.40;99.90;;;;;;5079541;28;20386;-78
2021/03/25 09:13:57;;;;;;;46.50;30.00;;;14.00;99.90;;;;;;5076844;28;20430;-77
2021/03/25 09:16:36;;;;;;;49.03;32.30;;;14.50;99.90;;;;;;5060445;28;20427;-78
2021/03/25 09:19:16;;;;;;;54.87;32.93;;;14.80;99.90;;;;;;5063393;28;20527;-79
2021/03/25 09:21:47;;;;;;;46.83;30.67;;;14.40;99.90;;;;;;5077499;28;20425;-79
2021/03/25 09:24:14;;;;;;;38.10;26.57;;;14.40;99.90;;;;;;5066558;28;20378;-79
2021/03/25 09:26:40;;;;;;;51.33;31.77;;;14.40;99.90;;;;;;5084525;28;20421;-79
2021/03/25 09:29:10;;;;;;;57.30;32.57;;;14.20;99.90;;;;;;5056025;28;20512;-78
2021/03/25 09:32:06;;;;;;;53.13;30.37;;;14.60;99.90;;;;;;5059055;28;22699;-78
2021/03/25 09:34:59;;;;;;;48.37;30.13;;;14.90;99.90;;;;;;5071541;28;20434;-78
2021/03/25 09:37:30;;;;;;;49.60;31.90;;;14.90;99.90;;;;;;5074974;28;20472;-78
2021/03/25 09:40:07;;;;;;;42.10;30.07;;;14.80;99.90;;;;;;5090776;28;20374;-78
2021/03/25 09:42:33;;;;;;;39.73;29.80;;;14.20;99.90;;;;;;5093636;28;20441;-78
2021/03/25 09:44:59;;;;;;;49.70;31.70;;;14.50;99.90;;;;;;5077963;28;20623;-78
2021/03/25 09:47:37;;;;;;;41.97;28.10;;;14.90;99.90;;;;;;5044407;28;20866;-78
2021/03/25 09:50:02;;;;;;;41.00;29.07;;;16.40;99.90;;;;;;5093948;28;20429;-78
2021/03/25 09:52:30;;;;;;;45.80;32.73;;;16.00;97.30;;;;;;5060806;28;20449;-78
2021/03/25 09:54:59;;;;;;;44.70;30.63;;;16.10;97.50;;;;;;5058490;28;20239;-78
2021/03/25 09:57:25;;;;;;;48.47;32.77;;;17.00;96.50;;;;;;5059595;28;20426;-78
2021/03/25 10:00:04;;;;;;;56.37;33.07;;;17.80;92.60;;;;;;5085287;28;20912;-78
2021/03/25 10:02:48;;;;;;;53.40;34.80;;;18.30;89.20;;;;;;5059799;28;20288;-79
2021/03/25 10:05:25;;;;;;;53.40;32.13;;;19.40;80.80;;;;;;5085207;28;20393;-79
2021/03/25 10:08:03;;;;;;;53.80;36.93;;;19.70;80.90;;;;;;5061570;28;20474;-78
2021/03/25 10:10:52;;;;;;;48.37;33.90;;;20.10;73.00;;;;;;5060141;28;20410;-78
2021/03/25 10:13:34;;;;;;;52.00;34.57;;;19.70;75.10;;;;;;5071233;28;20446;-79
2021/03/25 10:16:04;;;;;;;49.73;33.70;;;21.60;71.90;;;;;;5081738;28;20393;-78
2021/03/25 10:18:33;;;;;;;56.50;37.23;;;23.10;67.10;;;;;;5055496;28;20497;-78
2021/03/25 10:21:00;;;;;;;54.80;39.40;;;22.40;61.10;;;;;;5076840;28;21110;-79
2021/03/25 10:23:30;;;;;;;49.07;37.40;;;21.30;62.20;;;;;;5078547;28;20414;-78
2021/03/25 10:26:02;;;;;;;46.10;34.10;;;20.00;62.90;;;;;;5077341;28;20379;-78
2021/03/25 10:28:38;;;;;;;54.17;38.90;;;20.80;63.70;;;;;;5077160;28;20387;-78
2021/03/25 10:31:22;;;;;;;61.27;42.23;;;20.20;62.60;;;;;;5071147;28;20445;-77
2021/03/25 10:33:52;;;;;;;62.87;40.27;;;18.90;64.60;;;;;;5088143;28;20552;-78
2021/03/25 10:36:39;;;;;;;58.10;41.40;;;18.00;65.10;;;;;;5075910;28;20404;-78
2021/03/25 10:39:11;;;;;;;56.70;44.53;;;19.20;67.40;;;;;;5094083;28;21134;-78
2021/03/25 10:41:40;;;;;;;59.93;41.87;;;18.70;66.10;;;;;;5074493;28;21008;-78
2021/03/25 10:44:25;;;;;;;64.67;43.37;;;18.50;67.70;;;;;;5094619;28;20445;-78
2021/03/25 10:46:54;;;;;;;62.63;42.00;;;18.40;67.80;;;;;;5058524;28;21293;-78
2021/03/25 10:49:24;;;;;;;55.57;40.23;;;20.60;66.90;;;;;;5094776;28;20394;-78
2021/03/25 10:51:52;;;;;;;59.43;41.90;;;19.60;65.80;;;;;;5095471;28;20410;-78
2021/03/25 10:54:25;;;;;;;65.47;42.83;;;19.30;66.10;;;;;;5075628;28;20385;-78
2021/03/25 10:57:17;;;;;;;68.50;43.10;;;19.70;66.50;;;;;;5058617;28;20390;-78
2021/03/25 11:00:00;;;;;;;72.90;48.23;;;19.40;66.50;;;;;;5075138;28;20402;-78
2021/03/25 11:02:27;;;;;;;64.63;44.07;;;18.10;67.90;;;;;;5091053;28;20398;-78
2021/03/25 11:05:04;;;;;;;63.30;40.77;;;17.50;67.80;;;;;;5089624;28;20433;-78
2021/03/25 11:07:36;;;;;;;51.43;38.53;;;18.30;69.90;;;;;;5057910;28;20468;-78
2021/03/25 11:10:04;;;;;;;49.80;36.00;;;18.80;68.90;;;;;;5058309;28;20441;-77
2021/03/25 11:12:33;;;;;;;59.67;42.20;;;18.50;68.70;;;;;;5072173;28;20908;-78
2021/03/25 11:15:03;;;;;;;58.87;39.40;;;17.90;67.50;;;;;;5072715;28;21121;-78
2021/03/25 11:17:33;;;;;;;58.40;40.30;;;18.30;68.10;;;;;;5088001;28;20410;-78
2021/03/25 11:20:07;;;;;;;55.47;39.17;;;19.30;68.30;;;;;;5108809;27;20397;-78
2021/03/25 11:22:34;;;;;;;50.30;39.33;;;19.70;65.00;;;;;;5109677;27;20429;-78
2021/03/25 11:25:04;;;;;;;49.97;36.37;;;19.90;64.80;;;;;;5089260;28;20863;-78
2021/03/25 11:27:30;;;;;;;48.57;38.50;;;19.60;63.10;;;;;;5071678;28;20418;-78
2021/03/25 11:30:34;;;;;;;55.00;35.93;;;18.90;64.80;;;;;;5080750;28;20474;-78
2021/03/25 11:33:00;;;;;;;55.73;38.30;;;19.50;66.80;;;;;;5089558;28;20417;-78
2021/03/25 11:35:40;;;;;;;60.20;41.73;;;19.20;67.30;;;;;;5090795;28;20437;-79
2021/03/25 11:38:27;;;;;;;52.80;39.90;;;18.70;66.20;;;;;;5097310;28;20418;-79
2021/03/25 11:41:17;;;;;;;57.20;41.00;;;18.40;69.20;;;;;;5083225;28;20934;-79
2021/03/25 11:43:57;;;;;;;58.27;41.70;;;17.50;69.50;;;;;;5084188;28;20384;-78
2021/03/25 11:46:46;;;;;;;55.03;37.80;;;18.60;71.20;;;;;;5076171;28;20506;-78
2021/03/25 11:49:18;;;;;;;56.80;39.83;;;19.00;69.50;;;;;;5092230;28;20437;-78
2021/03/25 11:51:56;;;;;;;50.70;36.73;;;19.00;69.70;;;;;;5088120;28;20473;-78
2021/03/25 11:54:34;;;;;;;43.80;32.50;;;19.30;68.50;;;;;;5096940;28;20453;-78
2021/03/25 11:57:30;;;;;;;42.00;31.90;;;18.80;67.00;;;;;;5089194;28;20420;-78
2021/03/25 12:00:15;;;;;;;43.03;29.97;;;18.60;68.20;;;;;;5093148;28;20382;-78
2021/03/25 12:02:43;;;;;;;37.80;31.43;;;18.70;68.50;;;;;;5076502;28;20485;-78
2021/03/25 12:05:24;;;;;;;40.07;26.97;;;19.10;68.40;;;;;;5091261;28;20502;-78
2021/03/25 12:08:00;;;;;;;31.00;26.60;;;19.10;68.00;;;;;;5089499;28;20410;-78
2021/03/25 12:10:26;;;;;;;34.60;27.90;;;19.60;68.00;;;;;;5086786;28;20405;-77
2021/03/25 12:12:52;;;;;;;36.20;29.17;;;19.10;66.60;;;;;;5095970;28;20480;-78
2021/03/25 12:15:20;;;;;;;35.70;24.23;;;20.10;67.00;;;;;;5062065;28;20841;-78
2021/03/25 12:17:55;;;;;;;34.87;24.27;;;21.60;64.10;;;;;;5059415;28;20443;-77
2021/03/25 12:20:29;;;;;;;22.57;20.17;;;21.60;61.00;;;;;;5093938;28;20405;-78
2021/03/25 12:23:02;;;;;;;25.27;19.17;;;20.10;60.50;;;;;;5057836;28;20414;-78
2021/03/25 12:25:28;;;;;;;32.93;22.17;;;19.50;62.80;;;;;;5076023;28;20486;-78
2021/03/25 12:27:54;;;;;;;23.70;19.50;;;19.50;63.90;;;;;;5077937;28;20422;-78
2021/03/25 12:30:21;;;;;;;28.33;18.33;;;18.10;63.50;;;;;;5062220;28;20562;-80
2021/03/25 12:32:47;;;;;;;29.93;19.80;;;19.60;65.80;;;;;;5079407;28;21142;-78
2021/03/25 12:35:19;;;;;;;36.80;24.47;;;18.30;64.50;;;;;;5097086;28;20509;-77
2021/03/25 12:37:45;;;;;;;27.20;20.30;;;18.20;66.10;;;;;;5100327;28;21264;-78
2021/03/25 12:40:13;;;;;;;34.00;22.50;;;19.00;65.90;;;;;;5068625;28;20409;-78
2021/03/25 12:42:39;;;;;;;33.27;24.77;;;18.70;65.80;;;;;;5082377;28;20406;-77
2021/03/25 12:45:07;;;;;;;28.07;21.63;;;18.80;65.70;;;;;;5079416;28;20487;-78
2021/03/25 12:47:35;;;;;;;25.80;20.93;;;18.80;67.00;;;;;;5082630;28;20464;-81
2021/03/25 12:50:05;;;;;;;33.70;22.70;;;17.90;65.70;;;;;;5064521;28;20426;-80
2021/03/25 12:52:31;;;;;;;29.87;21.93;;;18.10;67.80;;;;;;5076362;28;20419;-78
2021/03/25 12:54:57;;;;;;;27.23;22.37;;;18.90;67.40;;;;;;5100915;28;20422;-80
2021/03/25 12:57:27;;;;;;;23.87;20.67;;;19.00;65.60;;;;;;5111225;27;20431;-78
2021/03/25 12:59:57;;;;;;;25.67;22.90;;;19.60;64.90;;;;;;5092292;28;20425;-79
2021/03/25 13:02:23;;;;;;;28.10;22.00;;;18.40;63.00;;;;;;5092208;28;20422;-78
2021/03/25 13:04:49;;;;;;;31.37;25.43;;;19.40;64.80;;;;;;5079523;28;20450;-78
2021/03/25 13:07:14;;;;;;;36.23;27.70;;;19.40;64.20;;;;;;5082632;28;20214;-78
2021/03/25 13:09:41;;;;;;;37.70;27.60;;;18.90;65.90;;;;;;5078841;28;20520;-78
2021/03/25 13:12:18;;;;;;;29.87;24.47;;;19.30;66.60;;;;;;5097145;28;20214;-78
2021/03/25 13:14:44;;;;;;;35.87;27.57;;;18.60;65.10;;;;;;5080255;28;21169;-79